LDDULDZD

Guest
Details From LDDU - DUBROVNIK
To LDZD - ZADAR
Flight Number -
Tags generated
Created
Modified
Stats Distance 157 nm / 291 km
Max Altitude 20,200 ft / 6,157 m
Waypoints 4
Social Downloads 0
Likes 0
Share VATSIM

Download

Looking for another format? Having issues loading an existing format? Contact us
Advertisement - Login to hide

Notes

Basic altitude profile: - Ascent Rate: 2500ft/min - Ascent Speed: 250kts - Cruise Altitude: 35000ft - Cruise Speed: 420kts - Descent Rate: 1500ft/min - Descent Speed: 250kts Options: - Use NATs: yes - Use PACOTS: yes - Use low airways: yes - Use high airways: yes

Route

LDDU NERRA L607 SIPAL LDZD

ID Type Via Altitude Latitude Longitude Leg Dist Tot Dist Heading (true) Name
O LDDU APT - 0 ft / 0 m 42.56284˚ 18.26450˚ - 0 nm - DUBROVNIK
NERRA FIX - 12,500 ft / 3,810 m 42.90528˚ 17.54333˚ 37 nm 37 nm 303° / 303° -
SIPAL FIX L607 (AWY-LO) 20,200 ft / 6,157 m 43.13667˚ 17.07361˚ 24 nm 62 nm 304° / 304° -
O LDZD APT - 0 ft / 0 m 44.09723˚ 15.34798˚ 94 nm 157 nm 308° / 307° ZADAR

Altitude Profile

Advertisement - Login to hide

LDDU

Details ICAO LDDU (DBV)
Name DUBROVNIK
Region Croatia
Timezone Europe/Zagreb (UTC+2.0)
Stats Elevation 527 ft / 161 m (AMSL)
Location 42.562840° 18.264499°
Runways 1
Magnetic Variation 4.145° E

METAR

LDDU 201030Z 30006KT 250V050 9999 FEW050 25/13 Q1014 NOSIG

Decode

TAF

TAF TAF LDDU 200525Z 2006/2106 24007KT 9999 FEW040 TX25/2014Z TN20/2104Z BECMG 2011/2013 28008KT PROB30 TEMPO 2012/2018 FEW035TCU BECMG 2019/2021 02010KT BECMG 2104/2106 12007KT

Decode

Departure Runways

ID Width Length Bearing (true) Bearing (mag) Surface Threshold Offset Overrun Length
12 148 ft / 45 m 10,803 ft / 3,293 m 118.30° 114.15° Asphalt 488 ft / 149 m 100 ft / 30 m
30 148 ft / 45 m 10,803 ft / 3,293 m 298.33° 294.18° Asphalt 0 ft / 0 m 100 ft / 30 m

LDZD

Details ICAO LDZD (ZAD)
Name ZADAR
Region Croatia
Timezone Europe/Zagreb (UTC+2.0)
Stats Elevation 289 ft / 88 m (AMSL)
Location 44.097225° 15.347978°
Runways 2
Magnetic Variation 3.748° E

METAR

LDZD 201030Z 04008KT 350V100 9999 FEW050 26/11 Q1015 NOSIG

Decode

TAF

TAF LDZD 200525Z 2006/2106 07008KT 9999 FEW060 TX27/2013Z TN17/2104Z TEMPO 2012/2015 22008KT TEMPO 2018/2102 06012KT

Decode

Destination Runways

ID Width Length Bearing (true) Bearing (mag) Surface Threshold Offset Overrun Length
04 147 ft / 45 m 6,519 ft / 1,987 m 41.52° 37.77° Asphalt 0 ft / 0 m 0 ft / 0 m
14 147 ft / 45 m 8,159 ft / 2,487 m 135.79° 132.04° Asphalt 0 ft / 0 m 0 ft / 0 m
22 147 ft / 45 m 6,519 ft / 1,987 m 221.53° 217.78° Asphalt 0 ft / 0 m 0 ft / 0 m
32 147 ft / 45 m 8,159 ft / 2,487 m 315.81° 312.06° Asphalt 0 ft / 0 m 0 ft / 0 m

Approach Navaids

Runway Type Ident Frequency Range Bearing (true) Bearing (mag) Slope Elevation
14 Localiser IZD 110.10 MHz 25 nm / 46 km 135.69° 131.94° - 246 ft / 75 m (AMSL)
14 Glidescope IZD 110.10 MHz 25 nm / 46 km 135.69° 131.94° 3.00° 236 ft / 72 m (AMSL)

Popular Alternatives